This is the latest recevied weather packets stored in our database for station/object LA4GY-1. If no packets are shown the sender has not sent any weather packets the latest 10 day(s).
| Time | Temp. | Humidity | Pressure | Rain* | Wind** | Luminosity | Snow |
|---|---|---|---|---|---|---|---|
| 1777776605 | 1.11° C | 90% | 1008.5 hPa | 1.27 mm | - | - | - |
| 1777775405 | 1.11° C | 91% | 1008.5 hPa | 0.76 mm | - | - | - |
| 1777772407 | 1.11° C | 92% | 1008.3 hPa | 0.25 mm | - | - | - |
| 1777768805 | 1.11° C | 91% | 1008.1 hPa | 0.51 mm | - | - | - |
| 1777764005 | 1.67° C | 92% | 1008 hPa | 0.25 mm | - | - | - |
| 1777759205 | 1.67° C | 92% | 1007.1 hPa | 0 mm | - | - | - |
| 1777756805 | 1.67° C | 93% | 1007 hPa | 0.25 mm | - | - | - |
| 1777747205 | 3.33° C | 91% | 1006.8 hPa | 0.76 mm | - | - | - |
| 1777740007 | 2.78° C | 90% | 1006.3 hPa | 0.25 mm | - | - | - |
| 1777738807 | 3.89° C | 91% | 1006.6 hPa | 0.25 mm | - | - | - |
| 1777737607 | 3.89° C | 92% | 1006.6 hPa | 0.25 mm | - | - | - |
| 1777736407 | 3.89° C | 93% | 1006.6 hPa | 0 mm | - | - | - |
| 1777735807 | 3.33° C | 93% | 1006.7 hPa | 0.51 mm | - | - | - |
| 1777734007 | 2.78° C | 93% | 1006.7 hPa | 2.03 mm | - | - | - |
| 1777729207 | 3.89° C | 91% | 1006.7 hPa | 2.03 mm | - | - | - |
| 1777728006 | 3.89° C | 91% | 1006.5 hPa | 1.52 mm | - | - | - |
| 1777713007 | 6.11° C | 79% | 1005.2 hPa | 0 mm | - | - | - |
| 1777705206 | 4.44° C | 90% | 1004.4 hPa | 0 mm | - | - | - |
| 1777701607 | 5° C | 92% | 1003.9 hPa | 0.25 mm | - | - | - |
| 1777687806 | 6.67° C | 93% | 1003.1 hPa | 2.29 mm | - | - | - |
| 1777686606 | 7.22° C | 93% | 1003.3 hPa | 2.54 mm | - | - | - |
| 1777686006 | 7.22° C | 93% | 1003.3 hPa | 3.3 mm | - | - | - |
| 1777682406 | 7.22° C | 92% | 1004.3 hPa | 1.02 mm | - | - | - |
| 1777678806 | 7.78° C | 88% | 1004.8 hPa | 0 mm | - | - | - |
| 1777677608 | 7.78° C | 87% | 1004.9 hPa | 0 mm | - | - | - |
* Rain latest hour (hover to see other rain measurements)
** Current wind speed in m/s (hover to see current wind gust speed)